Soaring Guidance
Issued by NWS Reno, NV

Current Version | Previous Version | Text Only | Print | Product List | Glossary On
Versions: 1 2 3 4 5 6 7 8 9 10 11 12 13
438
UXUS97 KREV 231348
SRGREV

SOARING FORECAST
NATIONAL WEATHER SERVICE - RENO NV
700 AM PDT MON OCT 23 2017

THIS SOARING FORECAST IS FOR THE EASTERN SIERRA AND WESTERN NEVADA
WITH SPECIFIC INDICES FOR THE GREATER RENO AREA.

THIS FORECAST IS PREPARED DAILY BY 700 AM AND IS NOT UPDATED.

FOR CURRENT FLIGHT CONDITIONS...FORECASTS...AND ADVISORIES...ACCESS
YOUR LOCAL BRIEFING OUTLET OR FLIGHT SERVICE STATION.

*******************************************************************
FORECASTED LOCAL INDICES FOR RENO:        TODAY     YESTERDAY
FORECASTED MAX TEMP AT RENO (DEG F).....     76          75
FORECASTED TRIGGER TEMPERATURE (DEG F)..     71          49
   EXCEEDED YESTERDAY BY 1055 AM PDT
FORECASTED MAXIMUM ALTITUDE (FT MSL)....   9200       12600
FORECASTED SOARING INDEX (FPM)..........    306         528
FORECASTED K-INDEX.........VALID 18Z....      8          -9
FORECASTED K-INDEX.........VALID 00Z....     11          10
FORECASTED LIFTED INDEX....VALID 18Z....      5           7
FORECASTED LIFTED INDEX....VALID 00Z....      5           4

AFTERNOON WINDS ALOFT FORECAST
MSL (FT) WIND/TEMP
9000  1108/+11
10000 0607/+09
12000 0406/+07
14000 -1706/+02
16000 -3606/-03
18000 33 5/-08
24000 9900/-21
30000 2107/-38
34000 1914/-49
39000 9900/-60

SLIDE MOUNTAIN DATA:
     DATE       TIME     TEMP  DEWPT   RH         WIND (MPH)
                        (F)   (F)           | DIR  SPEED GUST
2017-10-23    05:50      46    33     49    | 069   14   20
2017-10-23    05:30      47    35     53    | 061   15   21
2017-10-23    05:20      46    34     52    | 070   13   18
2017-10-23    05:00      46    33     51    | 071   13   18

SIERRA CREST 8700 FT DATA:
   DATE     TIME  TEMP  RH         WIND
                            DIR   SPEED   GUST
2017-10-23 0600   47   37   073     29     39
2017-10-23 0545   47   38   069     34     38
2017-10-23 0530   46   40   070     32     37
2017-10-23 0515   49   35   070     32     39

RENO TAF FORECAST:
KRNO 231121Z 2312/2412 VRB03KT P6SM SKC
     FM232000 07007KT P6SM SKC
     FM240400 VRB03KT P6SM SKC

CARSON CITY TAF FORECAST:
KCXP 231121Z 2312/2412 VRB03KT P6SM SKC
     FM232000 07010G16KT P6SM SKC
     FM240300 VRB03KT P6SM SKC

OUTLOOK FOR THE RENO-CARSON CITY-MINDEN AREA:
.TUESDAY...SUNNY. HIGHS 73 TO 78. LIGHT WINDS BECOMING EAST
AROUND 10 MPH IN THE AFTERNOON.

SUNRISE AND SUNSET
OCTOBER 23 2017.......SUNRISE   718 AM PDT   SUNSET   608 PM PDT
OCTOBER 24 2017.......SUNRISE   719 AM PDT   SUNSET   607 PM PDT



USA.gov is the U.S. government's official web portal to all federal, state and local government web resources and services.